createdAt,value
2023-01-18T00:07:25.673Z,97481.47
2023-01-18T00:11:37.344Z,97492.44
2023-01-18T00:20:03.630Z,97486.13
2023-01-18T00:27:31.434Z,97478.63
2023-01-18T00:31:35.006Z,97455.00
2023-01-18T00:35:26.264Z,97424.44
2023-01-18T00:39:13.909Z,97413.72
2023-01-18T00:47:36.372Z,97423.25
2023-01-18T01:03:40.359Z,97440.19
2023-01-18T01:38:11.030Z,97491.19
2023-01-18T01:42:19.393Z,97517.13
2023-01-18T01:51:22.504Z,97529.09
2023-01-18T01:55:20.307Z,97511.91
2023-01-18T02:20:11.097Z,97509.91
2023-01-18T02:34:20.377Z,97509.19
2023-01-18T03:05:02.630Z,97431.59
2023-01-18T03:09:07.972Z,97446.88
2023-01-18T03:18:20.517Z,97464.78
2023-01-18T03:36:04.724Z,97462.28
2023-01-18T03:40:07.004Z,97451.47
2023-01-18T03:44:19.560Z,97482.09
2023-01-18T03:57:04.111Z,97506.19
2023-01-18T04:01:08.248Z,97505.63
2023-01-18T04:05:08.353Z,97509.25
2023-01-18T04:13:15.883Z,97507.69
2023-01-18T04:38:25.018Z,97617.72
2023-01-18T04:42:25.257Z,97645.63
2023-01-18T05:15:14.005Z,97581.91
2023-01-18T05:24:14.869Z,97625.38
2023-01-18T05:28:25.657Z,97614.16
2023-01-18T05:36:13.076Z,97581.34
2023-01-18T05:39:20.211Z,97525.00
2023-01-18T05:42:24.710Z,97500.31
2023-01-18T05:45:29.725Z,97532.91
2023-01-18T05:48:34.326Z,97588.81
2023-01-18T05:51:37.956Z,97603.00
2023-01-18T05:54:43.603Z,97623.78
2023-01-18T05:57:54.180Z,97622.19
2023-01-18T06:00:59.258Z,97645.00
2023-01-18T06:04:06.139Z,97648.13
2023-01-18T06:07:11.324Z,97624.84
2023-01-18T06:10:16.133Z,97665.00
2023-01-18T06:13:20.423Z,97669.53
2023-01-18T06:16:26.394Z,97653.94
2023-01-18T06:19:35.865Z,97657.34
2023-01-18T06:22:43.352Z,97665.75
2023-01-18T06:25:47.359Z,97687.94
2023-01-18T06:28:51.164Z,97686.75
2023-01-18T06:31:54.344Z,97697.88
2023-01-18T06:34:57.802Z,97666.63
2023-01-18T06:38:02.355Z,97686.28
2023-01-18T06:41:09.504Z,97630.53
2023-01-18T06:44:16.578Z,97705.97
2023-01-18T06:47:25.375Z,97691.00
2023-01-18T06:50:33.458Z,97631.97
2023-01-18T06:53:40.999Z,97707.88
2023-01-18T06:56:48.497Z,97747.03
2023-01-18T06:59:58.494Z,97697.00
2023-01-18T07:03:05.761Z,97754.38
2023-01-18T07:06:10.411Z,97710.63
2023-01-18T07:09:15.519Z,97795.72
2023-01-18T07:12:24.610Z,97795.41
2023-01-18T07:15:30.734Z,97808.00
2023-01-18T07:18:37.234Z,97814.50
2023-01-18T07:21:40.821Z,97824.38
2023-01-18T07:24:49.692Z,97818.16
2023-01-18T07:27:59.114Z,97819.63
2023-01-18T07:31:08.129Z,97813.34
2023-01-18T07:34:16.683Z,97847.72
2023-01-18T07:37:21.542Z,97856.00
2023-01-18T07:40:25.531Z,97867.16
2023-01-18T07:43:30.783Z,97859.53
2023-01-18T07:46:35.158Z,97847.50
2023-01-18T07:49:41.167Z,97877.69
2023-01-18T07:52:46.897Z,97879.03
2023-01-18T07:55:52.128Z,97885.66
2023-01-18T07:58:58.107Z,97859.94
2023-01-18T08:02:05.535Z,97886.19
2023-01-18T08:05:15.577Z,97872.81
2023-01-18T08:08:23.156Z,97908.97
2023-01-18T08:11:28.172Z,97923.91
2023-01-18T08:14:34.664Z,97934.50
2023-01-18T08:17:41.570Z,97949.00
2023-01-18T08:20:49.754Z,97946.50
2023-01-18T08:23:56.476Z,97984.03
2023-01-18T08:27:02.724Z,97995.16
2023-01-18T08:30:10.103Z,97973.56
2023-01-18T08:33:16.144Z,98006.84
2023-01-18T08:36:23.120Z,98007.22
2023-01-18T08:39:28.948Z,98027.25
2023-01-18T08:42:33.663Z,98022.22
2023-01-18T08:45:39.118Z,98009.44
2023-01-18T08:48:44.625Z,98038.75
2023-01-18T08:51:50.819Z,98050.31
2023-01-18T08:54:59.931Z,98060.28
2023-01-18T08:58:07.153Z,98051.19
2023-01-18T09:01:15.405Z,98063.97
2023-01-18T09:04:22.024Z,98063.25
2023-01-18T09:07:27.361Z,98068.50
2023-01-18T09:10:36.735Z,98043.63
2023-01-18T09:13:59.312Z,98084.56
2023-01-18T09:17:07.405Z,98085.56
2023-01-18T09:20:18.659Z,98090.50
2023-01-18T09:23:23.783Z,98087.97
2023-01-18T09:26:28.458Z,98062.97
2023-01-18T09:29:33.270Z,98105.78
2023-01-18T09:32:42.443Z,98109.75
2023-01-18T09:35:50.322Z,98109.53
2023-01-18T09:38:59.523Z,98063.19
2023-01-18T09:42:05.809Z,98138.41
2023-01-18T09:45:24.440Z,98133.69
2023-01-18T09:48:33.457Z,98164.00
2023-01-18T09:52:09.233Z,98174.69
2023-01-18T09:55:34.841Z,98178.97
2023-01-18T09:59:03.005Z,98187.13
2023-01-18T10:02:38.556Z,98202.53
2023-01-18T10:06:09.293Z,98205.88
2023-01-18T10:09:16.392Z,98111.47
2023-01-18T10:12:36.352Z,98210.34
2023-01-18T10:15:44.468Z,98190.72
2023-01-18T10:18:53.826Z,98225.03
2023-01-18T10:22:07.368Z,98225.66
2023-01-18T10:25:43.367Z,98256.59
2023-01-18T10:28:59.768Z,98258.41
2023-01-18T10:32:20.288Z,98257.50
2023-01-18T10:35:34.255Z,98262.84
2023-01-18T10:38:41.476Z,98260.44
2023-01-18T10:41:45.634Z,98245.34
2023-01-18T10:44:48.826Z,98266.94
2023-01-18T10:47:54.132Z,98263.19
2023-01-18T10:51:08.203Z,98276.19
2023-01-18T10:54:27.119Z,98271.13
2023-01-18T10:57:31.478Z,98250.28
2023-01-18T11:00:36.043Z,98255.63
2023-01-18T11:03:46.600Z,98263.47
2023-01-18T11:06:52.844Z,98283.88
2023-01-18T11:10:02.046Z,98282.09
2023-01-18T11:13:27.898Z,98276.81
2023-01-18T11:16:31.647Z,98281.81
2023-01-18T11:19:36.073Z,98273.59
2023-01-18T11:22:53.816Z,98280.94
2023-01-18T11:26:03.037Z,98284.91
2023-01-18T11:29:09.554Z,98287.16
2023-01-18T11:32:27.206Z,98305.63
2023-01-18T11:35:37.171Z,98261.59
2023-01-18T11:38:42.326Z,98267.56
2023-01-18T11:41:47.052Z,98318.19
2023-01-18T11:44:55.159Z,98335.25
2023-01-18T11:48:20.441Z,98330.13
2023-01-18T11:51:46.356Z,98309.75
2023-01-18T11:55:01.047Z,98333.25
2023-01-18T11:58:18.281Z,98348.91
2023-01-18T12:01:37.530Z,98349.63
2023-01-18T12:05:05.842Z,98358.13
2023-01-18T12:08:40.314Z,98350.66
2023-01-18T12:12:19.745Z,98361.25
2023-01-18T12:15:50.593Z,98366.59
2023-01-18T12:19:14.292Z,98377.19
2023-01-18T12:22:47.723Z,98384.75
2023-01-18T12:26:28.827Z,98388.69
2023-01-18T12:29:47.614Z,98362.84
2023-01-18T12:33:43.528Z,98381.84
2023-01-18T12:37:23.431Z,98395.50
2023-01-18T12:40:41.364Z,98386.38
2023-01-18T12:43:58.025Z,98392.63
2023-01-18T12:47:19.836Z,98395.88
2023-01-18T12:50:31.347Z,98382.69
2023-01-18T12:53:46.434Z,98394.50
2023-01-18T12:56:54.130Z,98408.91
2023-01-18T13:00:07.787Z,98419.75
2023-01-18T13:03:22.011Z,98406.09
2023-01-18T13:06:28.179Z,98419.28
2023-01-18T13:09:36.696Z,98418.72
2023-01-18T13:12:45.569Z,98411.00
2023-01-18T13:15:57.400Z,98412.63
2023-01-18T13:19:07.944Z,98417.63
2023-01-18T13:22:14.421Z,98406.94
2023-01-18T13:25:29.966Z,98414.25
2023-01-18T13:28:34.249Z,98431.25
2023-01-18T13:31:39.114Z,98431.69
2023-01-18T13:34:48.889Z,98439.22
2023-01-18T13:38:03.620Z,98437.31
2023-01-18T13:41:13.462Z,98428.72
2023-01-18T13:44:33.021Z,98447.41
2023-01-18T13:47:48.444Z,98449.81
2023-01-18T13:50:53.427Z,98470.38
2023-01-18T13:53:57.480Z,98462.44
2023-01-18T13:57:06.395Z,98481.22
2023-01-18T14:00:25.165Z,98481.38
2023-01-18T14:03:45.424Z,98478.09
2023-01-18T14:06:52.076Z,98480.81
2023-01-18T14:10:03.853Z,98483.91
2023-01-18T14:13:14.249Z,98498.41
2023-01-18T14:16:27.732Z,98484.69
2023-01-18T14:19:36.171Z,98467.34
2023-01-18T14:22:46.574Z,98482.34
2023-01-18T14:26:01.147Z,98469.56
2023-01-18T14:29:24.676Z,98481.88
2023-01-18T14:32:34.297Z,98468.44
2023-01-18T14:35:41.711Z,98469.06
2023-01-18T14:38:48.358Z,98463.75
2023-01-18T14:41:55.739Z,98473.91
2023-01-18T14:44:59.377Z,98483.38
2023-01-18T14:48:08.600Z,98485.88
2023-01-18T14:51:20.849Z,98479.63
2023-01-18T14:54:26.655Z,98490.66
2023-01-18T14:57:33.600Z,98483.56
2023-01-18T15:01:00.076Z,98486.53
2023-01-18T15:04:28.835Z,98507.09
2023-01-18T15:07:41.482Z,98501.28
2023-01-18T15:10:52.654Z,98519.63
2023-01-18T15:14:06.104Z,98512.38
2023-01-18T15:17:35.715Z,98517.28
2023-01-18T15:21:25.134Z,98515.88
2023-01-18T15:24:42.503Z,98549.69
2023-01-18T15:27:56.698Z,98548.25
2023-01-18T15:31:22.639Z,98566.84
2023-01-18T15:34:44.457Z,98576.94
2023-01-18T15:38:03.082Z,98569.97
2023-01-18T15:41:16.362Z,98581.63
2023-01-18T15:45:03.181Z,98608.47
2023-01-18T15:48:27.163Z,98632.41
2023-01-18T15:52:01.635Z,98643.06
2023-01-18T15:55:48.105Z,98655.63
2023-01-18T15:59:25.517Z,98645.47
2023-01-18T16:02:53.595Z,98639.28
2023-01-18T16:06:38.755Z,98635.13
2023-01-18T16:10:12.227Z,98623.53
2023-01-18T16:14:04.487Z,98631.47
2023-01-18T16:17:37.377Z,98631.50
2023-01-18T16:21:05.643Z,98634.56
2023-01-18T16:24:50.353Z,98636.75
2023-01-18T16:28:01.839Z,98622.78
2023-01-18T16:31:15.469Z,98634.22
2023-01-18T16:34:28.403Z,98629.75
2023-01-18T16:37:51.404Z,98630.78
2023-01-18T16:41:20.437Z,98650.38
2023-01-18T16:44:30.882Z,98653.13
2023-01-18T16:48:06.893Z,98654.97
2023-01-18T16:51:37.219Z,98667.81
2023-01-18T16:54:51.425Z,98659.88
2023-01-18T16:58:12.736Z,98687.13
2023-01-18T17:01:43.576Z,98698.00
2023-01-18T17:05:13.804Z,98712.34
2023-01-18T17:09:08.868Z,98711.44
2023-01-18T17:12:25.862Z,98728.38
2023-01-18T17:15:33.938Z,98713.81
2023-01-18T17:18:39.635Z,98695.94
2023-01-18T17:22:23.785Z,98683.47
2023-01-18T17:26:20.432Z,98681.72
2023-01-18T17:37:22.741Z,98668.78
2023-01-18T17:41:19.649Z,98664.59
2023-01-18T17:45:12.463Z,98666.44
2023-01-18T17:49:13.092Z,98667.34
2023-01-18T17:53:00.100Z,98646.91
2023-01-18T17:56:31.323Z,98644.72
2023-01-18T18:00:05.419Z,98647.81
2023-01-18T18:07:39.198Z,98639.16
2023-01-18T18:20:15.782Z,98617.97
2023-01-18T18:33:17.099Z,98633.78
2023-01-18T18:37:11.036Z,98639.03
2023-01-18T18:55:10.533Z,98639.41
2023-01-18T19:16:26.193Z,98662.53
2023-01-18T19:45:45.341Z,98645.44
2023-01-18T19:49:50.599Z,98642.00
2023-01-18T19:54:14.039Z,98637.19
2023-01-18T19:58:26.227Z,98631.47
2023-01-18T20:02:26.296Z,98636.28
2023-01-18T20:11:24.912Z,98622.34
2023-01-18T20:15:23.908Z,98633.13
2023-01-18T20:19:32.617Z,98642.03
2023-01-18T20:36:26.581Z,98645.75
2023-01-18T20:40:24.786Z,98641.28
2023-01-18T20:44:40.492Z,98612.28
2023-01-18T21:21:12.914Z,98628.22
2023-01-18T21:25:23.083Z,98657.78
2023-01-18T21:38:27.887Z,98630.88
2023-01-18T21:56:07.131Z,98605.56
2023-01-18T22:00:14.959Z,98618.41
2023-01-18T22:18:17.576Z,98611.88
2023-01-18T22:27:07.099Z,98625.75
2023-01-18T22:35:36.917Z,98631.47
2023-01-18T22:48:25.439Z,98589.88
2023-01-18T23:00:35.365Z,98617.13
2023-01-18T23:04:21.660Z,98614.72
2023-01-18T23:08:14.743Z,98614.38
2023-01-18T23:12:24.394Z,98624.94
2023-01-18T23:21:11.083Z,98611.66
2023-01-18T23:25:15.504Z,98611.88
2023-01-18T23:29:45.650Z,98607.75
2023-01-18T23:42:05.380Z,98586.69
2023-01-18T23:46:07.585Z,98581.97
2023-01-18T23:50:19.235Z,98576.47
